CheckWX is a tool to help pilots better visualize weather data.  It is not intended as a substitute for an official pre-flight weather briefing.

17:26:47 UTC

EHVK METAR
Volkel Air Base Airport
Uden, The Netherlands
Current

32 mins ago

EHVK 241655Z AUTO 29007KT 260V320 9999 NCD 10/M00 Q1025 BLU
Observed
Mar-24 @ 16:55 UTC
Wind
  • 290° at 7 KTS
Visibility
10,000+ meters
Flight Rules
VFR
Cloud Levels
  • Clear skies
Temperature
10°C / 50°F
Dewpoint
C / 32°F
Humidity
50%
Altimeter
30.27" Hg
Pressure
1024.92 hPa
Previous

1 hour ago

EHVK 241625Z AUTO 29007KT 250V330 9999 NCD 10/M00 Q1025 BLU
Observed
Mar-24 @ 16:25 UTC
Wind
  • 290° at 7 KTS
Visibility
10,000+ meters
Flight Rules
VFR
Cloud Levels
  • Clear skies
Temperature
10°C / 50°F
Dewpoint
C / 32°F
Humidity
50%
Altimeter
30.27" Hg
Pressure
1024.92 hPa
Previous

2 hours ago

EHVK 241555Z AUTO 29007KT 250V350 9999 NCD 11/M01 Q1026 BLU
Observed
Mar-24 @ 15:55 UTC
Wind
  • 290° at 7 KTS
Visibility
10,000+ meters
Flight Rules
VFR
Cloud Levels
  • Clear skies
Temperature
11°C / 52°F
Dewpoint
-1°C / 30°F
Humidity
44%
Altimeter
30.3" Hg
Pressure
1025.92 hPa